createdAt,value
2019-02-22T00:02:19.920Z,63.81
2019-02-22T00:04:49.494Z,63.37
2019-02-22T00:07:19.084Z,63.10
2019-02-22T00:09:49.716Z,62.90
2019-02-22T00:12:19.528Z,63.25
2019-02-22T00:14:49.099Z,62.67
2019-02-22T00:17:18.702Z,62.56
2019-02-22T00:19:48.703Z,62.77
2019-02-22T00:22:18.480Z,62.58
2019-02-22T00:24:48.052Z,62.81
2019-02-22T00:27:17.685Z,62.63
2019-02-22T00:29:47.240Z,62.26
2019-02-22T00:32:16.782Z,61.98
2019-02-22T00:34:46.391Z,61.98
2019-02-22T00:37:16.111Z,62.04
2019-02-22T00:39:45.716Z,61.76
2019-02-22T00:42:15.277Z,61.75
2019-02-22T00:44:44.970Z,61.88
2019-02-22T00:47:14.503Z,62.00
2019-02-22T00:49:44.054Z,62.09
2019-02-22T00:52:13.674Z,62.14
2019-02-22T00:54:43.222Z,62.27
2019-02-22T00:57:12.906Z,62.36
2019-02-22T00:59:42.459Z,62.38
2019-02-22T01:02:12.085Z,62.88
2019-02-22T01:04:41.699Z,63.23
2019-02-22T01:07:11.343Z,63.84
2019-02-22T01:09:41.022Z,64.00
2019-02-22T01:12:10.549Z,63.64
2019-02-22T01:14:40.232Z,64.07
2019-02-22T01:17:09.866Z,64.14
2019-02-22T01:19:39.496Z,64.07
2019-02-22T01:22:09.094Z,64.31
2019-02-22T01:24:38.677Z,64.24
2019-02-22T01:27:08.234Z,64.37
2019-02-22T01:29:37.819Z,63.78
2019-02-22T01:32:07.528Z,63.63
2019-02-22T01:34:37.292Z,63.79
2019-02-22T01:37:06.909Z,63.70
2019-02-22T01:39:36.526Z,63.55
2019-02-22T01:42:06.171Z,63.05
2019-02-22T01:44:35.926Z,63.20
2019-02-22T01:47:05.545Z,63.49
2019-02-22T01:49:35.187Z,63.56
2019-02-22T01:52:04.730Z,63.49
2019-02-22T01:54:34.574Z,63.56
2019-02-22T01:57:04.287Z,63.52
2019-02-22T01:59:33.827Z,63.46
2019-02-22T02:02:03.407Z,63.42
2019-02-22T02:04:32.991Z,63.42
2019-02-22T02:07:02.719Z,63.71
2019-02-22T02:09:32.368Z,63.55
2019-02-22T02:12:02.224Z,63.48
2019-02-22T02:14:31.751Z,63.29
2019-02-22T02:17:01.358Z,62.83
2019-02-22T02:19:30.991Z,63.21
2019-02-22T02:22:00.665Z,62.97
2019-02-22T02:24:30.409Z,64.17
2019-02-22T02:26:59.979Z,63.88
2019-02-22T02:29:29.651Z,63.92
2019-02-22T02:31:59.203Z,64.08
2019-02-22T02:34:28.910Z,64.25
2019-02-22T02:36:58.438Z,64.49
2019-02-22T02:39:27.992Z,64.77
2019-02-22T02:41:57.657Z,65.09
2019-02-22T02:44:27.367Z,65.37
2019-02-22T02:46:57.152Z,66.11
2019-02-22T02:49:26.865Z,66.31
2019-02-22T02:51:56.474Z,66.22
2019-02-22T02:54:26.166Z,65.59
2019-02-22T02:56:55.767Z,65.61
2019-02-22T02:59:25.395Z,65.60
2019-02-22T03:01:54.956Z,65.58
2019-02-22T03:04:24.553Z,65.43
2019-02-22T03:07:15.765Z,65.10
2019-02-22T03:09:45.430Z,64.85
2019-02-22T03:12:15.017Z,64.49
2019-02-22T03:14:44.549Z,64.65
2019-02-22T03:17:14.263Z,64.53
2019-02-22T03:19:43.925Z,64.65
2019-02-22T03:22:13.522Z,64.12
2019-02-22T03:24:43.181Z,64.30
2019-02-22T03:27:12.728Z,64.30
2019-02-22T03:29:42.305Z,64.07
2019-02-22T03:32:11.891Z,64.04
2019-02-22T03:34:41.432Z,64.44
2019-02-22T03:37:11.108Z,64.07
2019-02-22T03:39:40.762Z,63.99
2019-02-22T03:42:10.433Z,64.20
2019-02-22T03:44:40.104Z,64.23
2019-02-22T03:47:09.662Z,64.42
2019-02-22T03:49:39.266Z,64.21
2019-02-22T03:52:31.460Z,64.40
2019-02-22T03:55:01.093Z,64.35
2019-02-22T03:57:30.659Z,63.84
2019-02-22T04:00:00.361Z,63.45
2019-02-22T04:02:30.158Z,63.53
2019-02-22T04:04:59.807Z,63.90
2019-02-22T04:07:29.371Z,63.65
2019-02-22T04:09:59.149Z,63.70
2019-02-22T04:12:28.771Z,63.60
2019-02-22T04:14:58.467Z,63.35
2019-02-22T04:17:28.023Z,63.34
2019-02-22T04:19:57.540Z,63.47
2019-02-22T04:22:27.073Z,63.30
2019-02-22T04:24:56.693Z,63.30
2019-02-22T04:27:26.308Z,63.19
2019-02-22T04:29:56.017Z,63.42
2019-02-22T04:32:25.569Z,63.44
2019-02-22T04:34:55.119Z,63.62
2019-02-22T04:37:24.673Z,64.04
2019-02-22T04:39:54.279Z,63.79
2019-02-22T04:42:23.872Z,63.80
2019-02-22T04:44:53.427Z,63.70
2019-02-22T04:47:23.161Z,64.05
2019-02-22T04:49:52.745Z,64.01
2019-02-22T04:52:22.283Z,64.08
2019-02-22T04:54:52.086Z,64.46
2019-02-22T04:57:21.645Z,64.43
2019-02-22T04:59:51.259Z,64.43
2019-02-22T05:02:20.928Z,64.88
2019-02-22T05:04:50.689Z,64.87
2019-02-22T05:07:20.272Z,64.81
2019-02-22T05:09:49.900Z,64.86
2019-02-22T05:12:19.586Z,64.73
2019-02-22T05:14:49.254Z,64.48
2019-02-22T05:17:18.889Z,64.64
2019-02-22T05:19:48.473Z,64.68
2019-02-22T05:22:18.061Z,64.57
2019-02-22T05:24:47.601Z,64.51
2019-02-22T05:27:17.326Z,64.63
2019-02-22T05:29:46.916Z,64.03
2019-02-22T05:32:16.540Z,63.98
2019-02-22T05:34:46.222Z,63.19
2019-02-22T05:37:15.788Z,62.81
2019-02-22T05:39:45.365Z,62.63
2019-02-22T05:42:22.674Z,62.38
2019-02-22T05:44:46.398Z,61.79
2019-02-22T05:47:16.040Z,61.63
2019-02-22T05:49:45.708Z,60.83
2019-02-22T05:52:15.368Z,60.69
2019-02-22T05:54:45.058Z,59.98
2019-02-22T05:57:14.767Z,59.64
2019-02-22T05:59:44.464Z,58.75
2019-02-22T06:02:14.739Z,58.61
2019-02-22T06:04:44.373Z,58.76
2019-02-22T06:07:14.680Z,58.76
2019-02-22T06:09:44.421Z,57.43
2019-02-22T06:12:14.061Z,57.78
2019-02-22T06:14:45.280Z,56.87
2019-02-22T06:17:15.142Z,55.73
2019-02-22T06:19:44.784Z,55.21
2019-02-22T06:22:14.336Z,55.50
2019-02-22T06:24:44.000Z,55.37
2019-02-22T06:27:13.660Z,55.08
2019-02-22T06:29:43.223Z,55.70
2019-02-22T06:32:12.761Z,56.38
2019-02-22T06:34:42.303Z,56.67
2019-02-22T06:37:11.980Z,57.67
2019-02-22T06:39:41.695Z,57.85
2019-02-22T06:42:11.224Z,58.50
2019-02-22T06:44:40.802Z,59.16
2019-02-22T06:47:10.384Z,59.62
2019-02-22T06:49:39.985Z,60.14
2019-02-22T06:52:09.531Z,61.22
2019-02-22T06:54:39.076Z,60.83
2019-02-22T06:57:08.709Z,61.80
2019-02-22T06:59:38.238Z,60.96
2019-02-22T07:02:07.924Z,61.08
2019-02-22T07:04:37.460Z,61.49
2019-02-22T07:07:07.135Z,61.95
2019-02-22T07:09:36.671Z,61.84
2019-02-22T07:12:16.565Z,63.05
2019-02-22T07:14:46.134Z,62.55
2019-02-22T07:17:15.859Z,62.40
2019-02-22T07:19:45.382Z,62.69
2019-02-22T07:22:15.113Z,62.44
2019-02-22T07:24:44.761Z,61.90
2019-02-22T07:27:14.403Z,61.56
2019-02-22T07:29:43.971Z,62.23
2019-02-22T07:32:13.497Z,61.85
2019-02-22T07:34:43.092Z,61.83
2019-02-22T07:37:12.758Z,61.36
2019-02-22T07:39:42.359Z,60.70
2019-02-22T07:42:11.949Z,60.45
2019-02-22T07:44:41.691Z,60.74
2019-02-22T07:47:11.334Z,59.40
2019-02-22T07:49:40.889Z,59.34
2019-02-22T07:52:10.610Z,59.60
2019-02-22T07:54:40.225Z,58.34
2019-02-22T07:57:09.818Z,58.08
2019-02-22T07:59:39.468Z,58.04
2019-02-22T08:02:09.242Z,56.58
2019-02-22T08:04:38.894Z,54.56
2019-02-22T08:07:08.441Z,53.80
2019-02-22T08:09:38.111Z,53.90
2019-02-22T08:12:07.717Z,53.21
2019-02-22T08:14:37.559Z,53.23
2019-02-22T08:17:07.246Z,53.25
2019-02-22T08:19:36.821Z,52.02
2019-02-22T08:22:06.511Z,51.84
2019-02-22T08:24:36.130Z,51.75
2019-02-22T08:27:05.834Z,51.33
2019-02-22T08:29:38.144Z,50.98
2019-02-22T08:32:06.926Z,49.94
2019-02-22T08:34:36.494Z,50.66
2019-02-22T08:37:06.212Z,50.55
2019-02-22T08:39:35.926Z,50.97
2019-02-22T08:42:05.565Z,52.40
2019-02-22T08:44:35.354Z,53.54
2019-02-22T08:47:04.912Z,53.51
2019-02-22T08:49:34.551Z,53.38
2019-02-22T08:52:04.206Z,53.16
2019-02-22T08:54:33.869Z,52.96
2019-02-22T08:57:03.623Z,52.85
2019-02-22T08:59:33.286Z,52.72
2019-02-22T09:02:03.044Z,52.56
2019-02-22T09:04:32.710Z,53.29
2019-02-22T09:07:02.270Z,53.68
2019-02-22T09:09:31.817Z,54.36
2019-02-22T09:12:01.542Z,55.29
2019-02-22T09:14:31.102Z,56.56
2019-02-22T09:17:00.811Z,57.83
2019-02-22T09:19:30.419Z,58.86
2019-02-22T09:21:59.974Z,60.10
2019-02-22T09:24:29.608Z,60.26
2019-02-22T09:26:59.174Z,60.43
2019-02-22T09:29:28.742Z,60.45
2019-02-22T09:31:58.364Z,60.79
2019-02-22T09:34:27.916Z,60.70
2019-02-22T09:36:57.551Z,61.12
2019-02-22T09:39:27.086Z,61.16
2019-02-22T09:41:56.723Z,60.86
2019-02-22T09:44:26.290Z,61.62
2019-02-22T09:46:55.977Z,63.28
2019-02-22T09:49:25.553Z,65.58
2019-02-22T09:51:55.285Z,66.85
2019-02-22T09:54:24.967Z,67.44
2019-02-22T09:56:54.693Z,67.90
2019-02-22T09:59:24.234Z,69.41
2019-02-22T10:01:53.761Z,70.16
2019-02-22T10:04:23.358Z,70.21
2019-02-22T10:06:53.007Z,69.70
2019-02-22T10:09:22.567Z,69.88
2019-02-22T10:11:52.097Z,69.72
2019-02-22T10:14:21.762Z,69.84
2019-02-22T10:16:51.440Z,69.82
2019-02-22T10:19:21.000Z,70.30
2019-02-22T10:21:50.680Z,70.88
2019-02-22T10:24:20.316Z,72.10
2019-02-22T10:26:49.899Z,73.49
2019-02-22T10:29:19.456Z,73.87
2019-02-22T10:31:49.189Z,74.69
2019-02-22T10:34:18.802Z,76.09
2019-02-22T10:36:48.342Z,77.36
2019-02-22T10:39:17.964Z,80.83
2019-02-22T10:41:49.747Z,83.91
2019-02-22T10:44:19.280Z,85.80
2019-02-22T10:46:48.994Z,88.55
2019-02-22T10:49:18.587Z,90.61
2019-02-22T10:51:48.154Z,92.24
2019-02-22T10:54:17.696Z,94.09
2019-02-22T10:56:47.246Z,95.64
2019-02-22T10:59:16.934Z,97.59
2019-02-22T11:01:46.537Z,98.24
2019-02-22T11:04:16.130Z,98.42
2019-02-22T11:06:45.770Z,99.20
2019-02-22T11:09:16.426Z,100.00
2019-02-22T11:11:46.191Z,100.00
2019-02-22T11:14:15.730Z,100.00
2019-02-22T11:16:45.630Z,100.00
2019-02-22T11:19:15.181Z,100.00
2019-02-22T11:21:44.850Z,100.00
2019-02-22T11:24:14.454Z,100.00
2019-02-22T11:26:44.035Z,100.00
2019-02-22T11:29:13.600Z,100.00
2019-02-22T11:31:43.185Z,100.00
2019-02-22T11:34:15.451Z,100.00
2019-02-22T11:36:45.069Z,100.00
2019-02-22T11:39:14.689Z,100.00
2019-02-22T11:41:44.250Z,100.00
2019-02-22T11:44:14.889Z,100.00
2019-02-22T11:46:44.520Z,100.00
2019-02-22T11:49:14.290Z,100.00
2019-02-22T11:51:43.852Z,100.00
2019-02-22T11:54:13.506Z,100.00
2019-02-22T11:56:43.130Z,100.00
2019-02-22T11:59:12.703Z,100.00
2019-02-22T12:01:42.267Z,100.00
2019-02-22T12:04:11.817Z,100.00
2019-02-22T12:06:42.392Z,100.00
2019-02-22T12:09:11.977Z,100.00
2019-02-22T12:11:42.106Z,100.00
2019-02-22T12:14:11.657Z,100.00
2019-02-22T12:16:41.278Z,100.00
2019-02-22T12:19:10.933Z,100.00
2019-02-22T12:21:40.661Z,100.00
2019-02-22T12:24:10.238Z,100.00
2019-02-22T12:26:39.889Z,100.00
2019-02-22T12:29:09.810Z,100.00
2019-02-22T12:31:39.564Z,100.00
2019-02-22T12:34:09.145Z,100.00
2019-02-22T12:36:38.802Z,100.00
2019-02-22T12:39:08.493Z,100.00
2019-02-22T12:41:38.201Z,100.00
2019-02-22T12:44:07.771Z,100.00
2019-02-22T12:46:37.391Z,100.00
2019-02-22T12:49:07.127Z,100.00
2019-02-22T12:51:36.811Z,100.00
2019-02-22T12:54:06.416Z,100.00
2019-02-22T12:59:07.915Z,100.00
2019-02-22T13:01:37.603Z,100.00
2019-02-22T13:04:07.206Z,100.00
2019-02-22T13:06:36.833Z,100.00
2019-02-22T13:09:07.533Z,100.00
2019-02-22T13:11:37.707Z,100.00
2019-02-22T13:14:07.505Z,100.00
2019-02-22T13:16:37.078Z,100.00
2019-02-22T13:19:06.717Z,100.00
2019-02-22T13:21:36.377Z,100.00
2019-02-22T13:24:06.140Z,100.00
2019-02-22T13:26:35.783Z,100.00
2019-02-22T13:29:05.459Z,100.00
2019-02-22T13:31:35.082Z,100.00
2019-02-22T13:34:04.881Z,100.00
2019-02-22T13:36:34.471Z,100.00
2019-02-22T13:39:04.915Z,100.00
2019-02-22T13:41:34.562Z,100.00
2019-02-22T13:44:04.193Z,100.00
2019-02-22T13:46:33.870Z,100.00
2019-02-22T13:49:03.443Z,100.00
2019-02-22T13:51:34.040Z,100.00
2019-02-22T13:54:03.783Z,100.00
2019-02-22T13:56:33.514Z,100.00
2019-02-22T13:59:03.080Z,100.00
2019-02-22T14:01:33.761Z,100.00
2019-02-22T14:04:03.548Z,100.00
2019-02-22T14:06:33.195Z,100.00
2019-02-22T14:09:05.942Z,100.00
2019-02-22T14:11:35.471Z,100.00
2019-02-22T14:14:05.054Z,100.00
2019-02-22T14:16:34.759Z,100.00
2019-02-22T14:19:04.329Z,100.00
2019-02-22T14:21:35.070Z,100.00
2019-02-22T14:24:04.947Z,100.00
2019-02-22T14:26:34.493Z,100.00
2019-02-22T14:29:04.125Z,100.00
2019-02-22T14:31:36.286Z,100.00
2019-02-22T14:34:05.964Z,100.00
2019-02-22T14:36:35.553Z,100.00
2019-02-22T14:39:05.743Z,100.00
2019-02-22T14:41:37.400Z,100.00
2019-02-22T14:44:06.782Z,100.00
2019-02-22T14:46:36.772Z,100.00
2019-02-22T14:49:06.428Z,100.00
2019-02-22T14:51:35.986Z,100.00
2019-02-22T14:54:05.535Z,100.00
2019-02-22T14:56:35.172Z,100.00
2019-02-22T14:59:05.074Z,100.00
2019-02-22T15:01:35.625Z,100.00
2019-02-22T15:04:06.079Z,100.00
2019-02-22T15:06:35.911Z,100.00
2019-02-22T15:09:06.086Z,100.00
2019-02-22T15:11:35.762Z,100.00
2019-02-22T15:14:05.302Z,100.00
2019-02-22T15:16:53.581Z,100.00
2019-02-22T15:19:23.152Z,100.00
2019-02-22T15:21:52.828Z,100.00
2019-02-22T15:24:22.452Z,100.00
2019-02-22T15:26:54.054Z,100.00
2019-02-22T15:29:23.523Z,100.00
2019-02-22T15:31:53.241Z,100.00
2019-02-22T15:34:23.018Z,100.00
2019-02-22T15:36:55.698Z,100.00
2019-02-22T15:39:25.407Z,100.00
2019-02-22T15:41:55.142Z,100.00
2019-02-22T15:44:24.710Z,100.00
2019-02-22T15:46:54.339Z,100.00
2019-02-22T15:49:23.940Z,100.00
2019-02-22T15:51:53.652Z,100.00
2019-02-22T15:54:23.304Z,100.00
2019-02-22T15:56:52.870Z,100.00
2019-02-22T15:59:22.598Z,100.00
2019-02-22T16:01:55.615Z,100.00
2019-02-22T16:04:44.987Z,100.00
2019-02-22T16:07:13.796Z,100.00
2019-02-22T16:09:43.363Z,100.00
2019-02-22T16:12:12.960Z,100.00
2019-02-22T16:14:42.530Z,100.00
2019-02-22T16:17:12.186Z,100.00
2019-02-22T16:19:41.854Z,100.00
2019-02-22T16:22:11.491Z,100.00
2019-02-22T16:24:41.270Z,100.00
2019-02-22T16:27:10.916Z,100.00
2019-02-22T16:29:40.698Z,100.00
2019-02-22T16:32:22.405Z,100.00
2019-02-22T16:34:52.090Z,100.00
2019-02-22T16:37:21.716Z,100.00
2019-02-22T16:39:52.504Z,100.00
2019-02-22T16:42:22.294Z,100.00
2019-02-22T16:44:52.060Z,100.00
2019-02-22T16:47:21.810Z,100.00
2019-02-22T16:49:51.485Z,100.00
2019-02-22T16:52:21.213Z,100.00
2019-02-22T16:54:50.871Z,100.00
2019-02-22T16:57:20.543Z,100.00
2019-02-22T16:59:50.214Z,100.00
2019-02-22T17:02:19.858Z,100.00
2019-02-22T17:04:49.543Z,100.00
2019-02-22T17:07:19.197Z,100.00
2019-02-22T17:09:49.103Z,100.00
2019-02-22T17:12:18.852Z,100.00
2019-02-22T17:14:48.538Z,100.00
2019-02-22T17:17:18.134Z,100.00
2019-02-22T17:19:48.053Z,100.00
2019-02-22T17:22:17.725Z,100.00
2019-02-22T17:24:47.370Z,100.00
2019-02-22T17:27:16.930Z,100.00
2019-02-22T17:29:46.473Z,100.00
2019-02-22T17:32:16.077Z,100.00
2019-02-22T17:34:45.788Z,100.00
2019-02-22T17:37:15.360Z,100.00
2019-02-22T17:39:45.957Z,100.00
2019-02-22T17:42:15.723Z,100.00
2019-02-22T17:44:45.411Z,100.00
2019-02-22T17:47:14.962Z,100.00
2019-02-22T17:49:44.809Z,100.00
2019-02-22T17:52:14.481Z,100.00
2019-02-22T17:54:44.017Z,100.00
2019-02-22T17:57:13.654Z,100.00
2019-02-22T17:59:43.271Z,100.00
2019-02-22T18:02:12.852Z,100.00
2019-02-22T18:04:42.587Z,100.00
2019-02-22T18:07:12.116Z,100.00
2019-02-22T18:09:41.730Z,100.00
2019-02-22T18:12:11.301Z,100.00
2019-02-22T18:14:41.094Z,100.00
2019-02-22T18:17:10.730Z,100.00
2019-02-22T18:19:40.422Z,100.00
2019-02-22T18:22:09.979Z,100.00
2019-02-22T18:24:39.537Z,100.00
2019-02-22T18:27:12.334Z,100.00
2019-02-22T18:29:42.268Z,100.00
2019-02-22T18:32:12.357Z,100.00
2019-02-22T18:34:42.577Z,100.00
2019-02-22T18:37:12.211Z,100.00
2019-02-22T18:39:41.758Z,100.00
2019-02-22T18:42:11.344Z,100.00
2019-02-22T18:44:40.905Z,100.00
2019-02-22T18:47:19.054Z,100.00
2019-02-22T18:49:41.891Z,100.00
2019-02-22T18:52:11.728Z,100.00
2019-02-22T18:54:41.427Z,100.00
2019-02-22T18:57:10.995Z,100.00
2019-02-22T18:59:40.573Z,100.00
2019-02-22T19:02:10.250Z,100.00
2019-02-22T19:04:39.802Z,100.00
2019-02-22T19:07:09.426Z,100.00
2019-02-22T19:09:38.970Z,100.00
2019-02-22T19:12:08.529Z,100.00
2019-02-22T19:14:38.100Z,100.00
2019-02-22T19:17:07.672Z,100.00
2019-02-22T19:19:37.291Z,100.00
2019-02-22T19:22:07.070Z,100.00
2019-02-22T19:24:36.647Z,100.00
2019-02-22T19:27:06.385Z,100.00
2019-02-22T19:29:35.980Z,100.00
2019-02-22T19:32:05.588Z,100.00
2019-02-22T19:34:35.348Z,100.00
2019-02-22T19:37:04.972Z,100.00
2019-02-22T19:39:37.649Z,100.00
2019-02-22T19:42:07.167Z,100.00
2019-02-22T19:44:36.741Z,100.00
2019-02-22T19:47:06.390Z,100.00
2019-02-22T19:49:37.697Z,100.00
2019-02-22T19:52:08.169Z,100.00
2019-02-22T19:54:37.755Z,100.00
2019-02-22T19:57:07.324Z,100.00
2019-02-22T19:59:36.919Z,100.00
2019-02-22T20:02:06.490Z,100.00
2019-02-22T20:04:36.142Z,100.00
2019-02-22T20:07:05.721Z,100.00
2019-02-22T20:09:35.355Z,100.00
2019-02-22T20:12:04.923Z,100.00
2019-02-22T20:14:34.469Z,100.00
2019-02-22T20:17:04.049Z,100.00
2019-02-22T20:19:33.667Z,100.00
2019-02-22T20:22:03.258Z,100.00
2019-02-22T20:24:32.937Z,100.00
2019-02-22T20:27:02.492Z,100.00
2019-02-22T20:29:32.123Z,100.00
2019-02-22T20:32:01.779Z,100.00
2019-02-22T20:34:31.370Z,100.00
2019-02-22T20:37:01.027Z,100.00
2019-02-22T20:39:30.600Z,100.00
2019-02-22T20:42:00.246Z,100.00
2019-02-22T20:44:29.804Z,100.00
2019-02-22T20:46:59.365Z,100.00
2019-02-22T20:49:28.944Z,100.00
2019-02-22T20:51:58.519Z,100.00
2019-02-22T20:54:28.228Z,100.00
2019-02-22T20:57:01.162Z,100.00
2019-02-22T20:59:30.861Z,100.00
2019-02-22T21:02:00.980Z,100.00
2019-02-22T21:04:30.716Z,100.00
2019-02-22T21:07:00.358Z,100.00
2019-02-22T21:09:30.042Z,100.00
2019-02-22T21:11:59.857Z,100.00
2019-02-22T21:14:29.519Z,100.00
2019-02-22T21:16:59.089Z,100.00
2019-02-22T21:19:28.800Z,100.00
2019-02-22T21:21:58.486Z,100.00
2019-02-22T21:24:28.196Z,100.00
2019-02-22T21:26:57.858Z,100.00
2019-02-22T21:29:27.522Z,100.00
2019-02-22T21:31:57.096Z,100.00
2019-02-22T21:34:26.668Z,100.00
2019-02-22T21:36:56.305Z,100.00
2019-02-22T21:39:25.843Z,100.00
2019-02-22T21:41:55.370Z,100.00
2019-02-22T21:44:25.013Z,100.00
2019-02-22T21:46:54.550Z,100.00
2019-02-22T21:49:24.201Z,100.00
2019-02-22T21:51:53.819Z,100.00
2019-02-22T21:54:23.369Z,100.00
2019-02-22T21:56:52.920Z,100.00
2019-02-22T21:59:22.493Z,100.00
2019-02-22T22:01:52.025Z,100.00
2019-02-22T22:04:21.565Z,100.00
2019-02-22T22:06:51.228Z,100.00
2019-02-22T22:09:20.936Z,100.00
2019-02-22T22:11:50.471Z,100.00
2019-02-22T22:14:20.074Z,100.00
2019-02-22T22:16:49.617Z,100.00
2019-02-22T22:19:19.135Z,100.00
2019-02-22T22:21:48.764Z,100.00
2019-02-22T22:24:18.359Z,100.00
2019-02-22T22:26:47.928Z,100.00
2019-02-22T22:29:17.643Z,100.00
2019-02-22T22:31:47.180Z,100.00
2019-02-22T22:34:16.735Z,100.00
2019-02-22T22:36:46.312Z,100.00
2019-02-22T22:39:15.895Z,100.00
2019-02-22T22:41:45.643Z,100.00
2019-02-22T22:44:15.224Z,100.00
2019-02-22T22:46:44.847Z,100.00
2019-02-22T22:49:14.389Z,100.00
2019-02-22T22:51:43.975Z,100.00
2019-02-22T22:54:13.646Z,100.00
2019-02-22T22:56:43.291Z,100.00
2019-02-22T22:59:12.842Z,100.00
2019-02-22T23:01:42.614Z,100.00
2019-02-22T23:04:12.204Z,100.00
2019-02-22T23:06:41.799Z,100.00
2019-02-22T23:09:19.330Z,100.00
2019-02-22T23:11:48.996Z,100.00
2019-02-22T23:14:18.545Z,100.00
2019-02-22T23:16:48.347Z,100.00
2019-02-22T23:19:17.911Z,100.00
2019-02-22T23:21:47.517Z,97.89
2019-02-22T23:24:17.096Z,97.82
2019-02-22T23:26:46.747Z,98.40
2019-02-22T23:29:16.293Z,98.54
2019-02-22T23:31:45.901Z,98.52
2019-02-22T23:34:15.502Z,97.29
2019-02-22T23:36:45.069Z,98.03
2019-02-22T23:39:14.583Z,96.03
2019-02-22T23:41:44.313Z,96.03
2019-02-22T23:44:13.825Z,97.11
2019-02-22T23:46:43.355Z,97.11
2019-02-22T23:49:13.506Z,97.31
2019-02-22T23:51:43.064Z,97.89
2019-02-22T23:54:12.634Z,98.87
2019-02-22T23:56:42.242Z,98.87
2019-02-22T23:59:11.787Z,99.73
